Time;durP1;ratioP1;P1;durP2;ratioP2;P2;SDS_P1;SDS_P2;PMS_P1;PMS_P2;Temp;Humidity;BMP_temperature;BMP_pressure;BME280_temperature;BME280_humidity;BME280_pressure;Samples;Min_cycle;Max_cycle;Signal;HPM_P1;HPM_P2
2022/08/18 00:01:21;;;;;;;8.43;2.97;;;;;;;16.64;100.00;100836.06;5018220;28;20036;-54
2022/08/18 00:03:46;;;;;;;4.22;1.30;;;;;;;16.63;100.00;100835.25;5015213;28;20386;-53
2022/08/18 00:06:12;;;;;;;15.80;1.63;;;;;;;16.66;100.00;100842.00;5006984;28;20040;-53
2022/08/18 00:08:37;;;;;;;5.30;1.95;;;;;;;16.65;100.00;100838.53;5025123;28;20045;-50
2022/08/18 00:11:04;;;;;;;10.40;2.42;;;;;;;16.62;100.00;100841.63;5024354;28;20029;-53
2022/08/18 00:13:29;;;;;;;7.00;1.88;;;;;;;16.58;100.00;100846.63;5014806;28;20125;-54
2022/08/18 00:15:55;;;;;;;9.43;2.00;;;;;;;16.59;100.00;100842.06;5021281;28;20125;-49
2022/08/18 00:18:20;;;;;;;4.68;1.35;;;;;;;16.59;100.00;100839.41;5027881;28;20060;-50
2022/08/18 00:20:45;;;;;;;9.57;1.85;;;;;;;16.59;100.00;100844.75;5022439;28;20486;-52
2022/08/18 00:23:12;;;;;;;5.35;2.30;;;;;;;16.58;100.00;100851.16;5021610;28;20625;-51
2022/08/18 00:25:38;;;;;;;7.40;2.15;;;;;;;16.59;100.00;100855.47;5009898;28;20123;-49
2022/08/18 00:28:04;;;;;;;8.27;1.42;;;;;;;16.59;100.00;100860.81;5022322;28;20017;-53
2022/08/18 00:30:29;;;;;;;6.18;1.27;;;;;;;16.60;100.00;100856.28;5018190;28;20038;-52
2022/08/18 00:32:57;;;;;;;11.48;2.55;;;;;;;16.60;100.00;100859.78;5019611;28;20076;-54
2022/08/18 00:35:27;;;;;;;6.03;0.95;;;;;;;16.61;100.00;100865.94;5016514;28;20037;-53
2022/08/18 00:37:54;;;;;;;7.78;1.80;;;;;;;16.62;100.00;100862.22;5017844;28;20028;-52
2022/08/18 00:40:27;;;;;;;8.70;2.75;;;;;;;16.62;100.00;100868.41;5022254;28;20060;-53
2022/08/18 00:42:56;;;;;;;7.40;1.65;;;;;;;16.67;100.00;100870.41;5023495;28;20471;-54
2022/08/18 00:45:26;;;;;;;10.05;2.53;;;;;;;16.67;100.00;100865.88;5015501;28;20033;-50
2022/08/18 00:47:52;;;;;;;8.35;3.13;;;;;;;16.68;100.00;100872.06;5014353;28;20091;-54
2022/08/18 00:50:31;;;;;;;4.30;1.95;;;;;;;16.67;100.00;100868.53;5010713;28;20452;-52
2022/08/18 00:53:04;;;;;;;5.35;0.80;;;;;;;16.69;100.00;100865.66;5019807;28;20382;-52
2022/08/18 00:55:32;;;;;;;7.60;3.08;;;;;;;16.67;100.00;100860.50;5019805;28;20136;-50
2022/08/18 00:58:05;;;;;;;6.70;1.25;;;;;;;16.65;100.00;100859.94;5022856;28;20467;-53
2022/08/18 01:00:32;;;;;;;5.50;2.20;;;;;;;16.65;100.00;100862.63;5020812;28;20121;-52
2022/08/18 01:03:02;;;;;;;7.63;2.13;;;;;;;16.67;100.00;100862.38;5015728;28;20456;-50
2022/08/18 01:05:33;;;;;;;7.13;1.38;;;;;;;16.68;100.00;100867.53;5017774;28;20030;-51
2022/08/18 01:07:59;;;;;;;4.32;1.50;;;;;;;16.66;100.00;100856.22;5021609;28;20022;-52
2022/08/18 01:10:25;;;;;;;5.60;2.35;;;;;;;16.66;100.00;100860.75;5011467;28;20038;-52
2022/08/18 01:12:56;;;;;;;4.18;1.42;;;;;;;16.65;100.00;100857.25;5017611;28;20050;-54
2022/08/18 01:15:24;;;;;;;3.72;1.25;;;;;;;16.62;100.00;100860.38;5014968;28;20411;-52
2022/08/18 01:23:31;;;;;;;4.30;1.88;;;;;;;16.51;100.00;100858.44;5022306;28;20045;-48
2022/08/18 01:25:59;;;;;;;5.55;2.53;;;;;;;16.49;100.00;100860.50;5021844;28;20083;-52
2022/08/18 01:28:29;;;;;;;6.75;1.25;;;;;;;16.49;100.00;100847.13;5027691;28;20041;-51
2022/08/18 01:30:59;;;;;;;5.95;1.85;;;;;;;16.47;100.00;100839.31;5017139;28;20095;-48
2022/08/18 01:33:35;;;;;;;6.35;1.50;;;;;;;16.45;100.00;100844.06;5012358;28;20565;-51
2022/08/18 01:36:15;;;;;;;3.88;1.38;;;;;;;16.47;100.00;100855.38;5026828;28;20083;-54
2022/08/18 01:38:41;;;;;;;2.47;1.85;;;;;;;16.50;100.00;100854.13;5024707;28;20117;-51
2022/08/18 01:41:07;;;;;;;5.88;1.38;;;;;;;16.50;100.00;100844.22;5022042;28;20064;-55
2022/08/18 01:43:34;;;;;;;12.05;1.65;;;;;;;16.51;100.00;100850.41;5018540;28;20541;-52
2022/08/18 01:46:02;;;;;;;5.50;1.13;;;;;;;16.52;100.00;100849.34;5027308;28;20597;-49
2022/08/18 01:48:33;;;;;;;3.85;0.82;;;;;;;16.52;100.00;100844.84;5024124;28;20037;-51
2022/08/18 01:50:59;;;;;;;5.38;1.33;;;;;;;16.55;100.00;100840.91;5028766;28;20526;-55
2022/08/18 01:53:26;;;;;;;4.47;1.25;;;;;;;16.55;100.00;100840.91;5025130;28;20034;-54
2022/08/18 01:55:52;;;;;;;1.65;1.48;;;;;;;16.52;100.00;100842.16;5020521;28;20029;-49
2022/08/18 01:58:18;;;;;;;3.10;0.82;;;;;;;16.51;100.00;100845.03;5031219;28;20500;-51
2022/08/18 02:00:43;;;;;;;1.73;0.73;;;;;;;16.50;100.00;100846.09;5025838;28;20129;-53
2022/08/18 02:03:13;;;;;;;7.78;1.35;;;;;;;16.52;100.00;100841.31;5017703;28;20029;-51
2022/08/18 02:05:48;;;;;;;2.92;0.60;;;;;;;16.51;100.00;100840.50;5022209;28;20026;-53
2022/08/18 02:08:14;;;;;;;2.92;1.60;;;;;;;16.52;100.00;100844.00;5029557;28;20026;-51
2022/08/18 02:10:40;;;;;;;3.05;1.02;;;;;;;16.50;100.00;100849.59;5020680;28;20052;-52
2022/08/18 02:13:06;;;;;;;6.20;1.35;;;;;;;16.52;100.00;100852.03;5023278;28;20049;-50
2022/08/18 02:15:32;;;;;;;2.08;0.52;;;;;;;16.53;100.00;100851.00;5021108;28;20033;-51
2022/08/18 02:17:57;;;;;;;0.57;0.57;;;;;;;16.55;100.00;100852.41;5028819;28;20022;-53
2022/08/18 02:20:24;;;;;;;5.97;1.63;;;;;;;16.53;100.00;100845.66;5022757;28;20041;-51
2022/08/18 02:22:49;;;;;;;5.97;0.93;;;;;;;16.51;100.00;100845.03;5020305;28;20459;-52
2022/08/18 02:25:16;;;;;;;3.63;1.25;;;;;;;16.51;100.00;100850.41;5022546;28;20041;-54
2022/08/18 02:27:42;;;;;;;3.53;0.93;;;;;;;16.50;100.00;100838.88;5024705;28;20032;-54
2022/08/18 02:30:12;;;;;;;3.28;0.95;;;;;;;16.51;100.00;100834.34;5026132;28;20032;-48
2022/08/18 02:32:37;;;;;;;1.92;0.57;;;;;;;16.52;100.00;100847.50;5022859;28;20864;-52
2022/08/18 02:35:05;;;;;;;3.80;0.88;;;;;;;16.53;100.00;100845.66;5025418;28;20030;-50
2022/08/18 02:37:31;;;;;;;4.65;1.13;;;;;;;16.50;100.00;100844.22;5012067;28;20486;-50
2022/08/18 02:39:56;;;;;;;4.78;1.20;;;;;;;16.48;100.00;100848.16;5024607;28;20076;-50
2022/08/18 02:42:22;;;;;;;2.70;0.73;;;;;;;16.48;100.00;100845.50;5023120;28;20479;-54
2022/08/18 02:44:47;;;;;;;1.73;1.15;;;;;;;16.48;100.00;100845.50;5015152;28;20041;-50
2022/08/18 02:47:13;;;;;;;3.97;1.40;;;;;;;16.49;100.00;100839.09;5018058;28;20394;-52
2022/08/18 02:49:38;;;;;;;4.57;0.88;;;;;;;16.48;100.00;100840.94;5020601;28;20056;-50
2022/08/18 02:52:04;;;;;;;5.63;1.83;;;;;;;16.49;100.00;100837.22;5028446;28;20163;-54
2022/08/18 02:54:30;;;;;;;1.33;0.90;;;;;;;16.49;100.00;100836.41;5024826;28;20029;-50
2022/08/18 02:56:56;;;;;;;5.25;0.57;;;;;;;16.49;100.00;100845.25;5023409;28;20033;-51
2022/08/18 02:59:26;;;;;;;1.45;0.52;;;;;;;16.50;100.00;100843.41;5017105;28;20036;-53
2022/08/18 03:01:54;;;;;;;3.25;0.40;;;;;;;16.46;100.00;100836.84;5021370;28;20117;-50
2022/08/18 03:04:24;;;;;;;5.00;1.25;;;;;;;16.40;100.00;100830.53;5019360;28;20551;-50
2022/08/18 03:06:50;;;;;;;4.28;0.82;;;;;;;16.39;100.00;100839.59;5027760;28;20479;-54
2022/08/18 03:09:17;;;;;;;7.13;1.33;;;;;;;16.39;100.00;100825.41;5023262;28;20053;-51
2022/08/18 03:11:43;;;;;;;2.67;1.42;;;;;;;16.38;100.00;100829.94;5026310;28;20183;-53
2022/08/18 03:14:08;;;;;;;6.20;1.15;;;;;;;16.37;100.00;100814.94;5020185;28;20026;-51
2022/08/18 03:16:36;;;;;;;7.82;1.95;;;;;;;16.36;100.00;100816.75;5026655;28;20434;-51
2022/08/18 03:19:02;;;;;;;6.00;1.60;;;;;;;16.33;100.00;100819.88;5015747;28;20093;-52
2022/08/18 03:21:30;;;;;;;3.63;1.88;;;;;;;16.33;100.00;100816.41;5030324;28;20071;-54
2022/08/18 03:23:57;;;;;;;3.65;1.10;;;;;;;16.32;100.00;100817.44;5023180;28;20021;-52
2022/08/18 03:26:23;;;;;;;9.95;1.45;;;;;;;16.32;100.00;100817.44;5022397;28;20530;-54
2022/08/18 03:28:51;;;;;;;8.40;1.52;;;;;;;16.32;100.00;100820.13;5016570;28;20281;-51
2022/08/18 03:31:19;;;;;;;5.57;2.60;;;;;;;16.31;100.00;100813.94;5029465;28;20129;-55
2022/08/18 03:33:45;;;;;;;4.20;1.00;;;;;;;16.30;100.00;100820.31;5017227;28;20086;-54
2022/08/18 03:36:17;;;;;;;4.30;0.88;;;;;;;16.31;100.00;100821.94;5027967;28;20084;-53
2022/08/18 03:38:44;;;;;;;5.88;1.50;;;;;;;16.31;100.00;100821.16;5024519;28;20018;-51
2022/08/18 03:41:12;;;;;;;5.20;1.02;;;;;;;16.29;100.00;100813.34;5025888;28;20037;-51
2022/08/18 03:43:38;;;;;;;2.90;1.13;;;;;;;16.28;100.00;100813.56;5026712;28;20227;-48
2022/08/18 03:46:10;;;;;;;5.20;0.65;;;;;;;16.27;100.00;100815.44;5024295;28;20117;-49
2022/08/18 03:48:38;;;;;;;1.83;0.55;;;;;;;16.29;100.00;100817.91;5027919;28;20541;-52
2022/08/18 03:51:16;;;;;;;3.67;0.88;;;;;;;16.31;100.00;100813.94;5017831;28;20060;-49
2022/08/18 03:53:42;;;;;;;12.45;2.03;;;;;;;16.32;100.00;100814.78;5017259;28;20025;-51
2022/08/18 03:56:14;;;;;;;5.43;1.25;;;;;;;16.31;100.00;100811.25;5023336;28;20036;-54
2022/08/18 03:58:44;;;;;;;5.82;1.05;;;;;;;16.29;100.00;100810.69;5023078;28;20419;-51
2022/08/18 04:01:14;;;;;;;4.75;0.73;;;;;;;16.31;100.00;100811.25;5029736;28;20036;-52
2022/08/18 04:03:44;;;;;;;9.20;1.38;;;;;;;16.31;100.00;100813.94;5022946;28;21125;-52
2022/08/18 04:06:23;;;;;;;9.85;1.75;;;;;;;16.33;100.00;100811.03;5021564;28;20037;-51
2022/08/18 04:08:57;;;;;;;4.18;1.75;;;;;;;16.36;100.00;100816.75;5021471;28;20026;-53
2022/08/18 04:11:23;;;;;;;4.10;0.70;;;;;;;16.34;100.00;100812.66;5022749;28;20092;-51
2022/08/18 04:13:49;;;;;;;4.70;1.45;;;;;;;16.36;100.00;100818.63;5015829;28;20380;-48
2022/08/18 04:16:15;;;;;;;17.38;2.22;;;;;;;16.35;100.00;100809.78;5030182;28;20033;-49
2022/08/18 04:18:41;;;;;;;4.90;2.03;;;;;;;16.38;100.00;100813.06;5023462;28;20103;-52
2022/08/18 04:21:09;;;;;;;4.50;1.20;;;;;;;16.40;100.00;100822.50;5028922;28;20467;-54
2022/08/18 04:23:37;;;;;;;1.70;1.02;;;;;;;16.39;100.00;100812.81;5025424;28;20029;-52
2022/08/18 04:26:04;;;;;;;9.00;1.40;;;;;;;16.41;100.00;100813.44;5029097;28;20356;-51
2022/08/18 04:28:30;;;;;;;5.05;1.23;;;;;;;16.42;100.00;100811.56;5026415;28;21038;-53
2022/08/18 04:30:58;;;;;;;6.53;1.40;;;;;;;16.41;100.00;100815.28;5024841;28;20045;-49
2022/08/18 04:33:25;;;;;;;5.63;1.90;;;;;;;16.39;100.00;100826.19;5023365;28;20103;-54
2022/08/18 04:35:51;;;;;;;5.90;1.60;;;;;;;16.37;100.00;100822.97;5015910;28;20041;-51
2022/08/18 04:38:17;;;;;;;5.22;1.33;;;;;;;16.39;100.00;100820.03;5024481;28;20328;-50
2022/08/18 04:40:42;;;;;;;4.68;1.25;;;;;;;16.40;100.00;100821.69;5024562;28;20124;-53
2022/08/18 04:43:13;;;;;;;14.95;2.38;;;;;;;16.40;100.00;100827.06;5011990;28;20355;-54
2022/08/18 04:45:44;;;;;;;6.95;2.08;;;;;;;16.38;100.00;100818.41;5012202;28;20479;-50
2022/08/18 04:48:09;;;;;;;2.72;1.13;;;;;;;16.38;100.00;100821.91;5026159;28;20053;-51
2022/08/18 04:50:35;;;;;;;4.50;1.73;;;;;;;16.39;100.00;100825.41;5024848;28;20033;-54
2022/08/18 04:55:50;;;;;;;5.72;1.20;;;;;;;16.37;100.00;100828.31;5017730;28;20103;-51
2022/08/18 04:58:17;;;;;;;5.03;1.63;;;;;;;16.38;100.00;100834.47;5019749;28;20212;-52
2022/08/18 05:00:46;;;;;;;11.55;2.72;;;;;;;16.38;100.00;100831.78;5019636;28;20049;-55
2022/08/18 05:03:12;;;;;;;9.73;3.17;;;;;;;16.40;100.00;100827.06;5023375;28;20075;-54
2022/08/18 05:05:38;;;;;;;6.60;2.25;;;;;;;16.41;100.00;100831.34;5018490;28;20079;-50
2022/08/18 05:08:03;;;;;;;5.65;1.75;;;;;;;16.42;100.00;100830.28;5021148;28;20453;-50
2022/08/18 05:10:29;;;;;;;2.83;1.20;;;;;;;16.45;100.00;100837.91;5018394;28;20041;-51
2022/08/18 05:12:54;;;;;;;9.00;2.80;;;;;;;16.46;100.00;100837.66;5029260;28;20056;-50
2022/08/18 05:15:20;;;;;;;9.50;4.22;;;;;;;16.46;100.00;100840.34;5026130;28;20083;-54
2022/08/18 05:17:45;;;;;;;3.05;1.30;;;;;;;16.48;100.00;100840.13;5024120;28;20076;-54
2022/08/18 05:20:10;;;;;;;5.30;1.65;;;;;;;16.47;100.00;100838.47;5022844;28;20038;-51
2022/08/18 05:22:42;;;;;;;5.13;1.90;;;;;;;16.47;100.00;100842.00;5018284;28;20021;-54
2022/08/18 05:25:09;;;;;;;10.35;1.70;;;;;;;16.46;100.00;100842.22;5027983;28;20040;-53
2022/08/18 05:27:41;;;;;;;8.43;2.20;;;;;;;16.45;100.00;100836.03;5029254;28;20061;-53
2022/08/18 05:30:09;;;;;;;10.90;2.83;;;;;;;16.45;100.00;100836.03;5025203;28;20037;-51
2022/08/18 05:32:40;;;;;;;11.27;2.80;;;;;;;16.45;100.00;100838.72;5025499;28;20176;-54
2022/08/18 05:35:13;;;;;;;3.78;1.80;;;;;;;16.44;100.00;100834.38;5030578;28;20406;-49
2022/08/18 05:37:51;;;;;;;3.70;2.15;;;;;;;16.42;100.00;100835.66;5020625;28;20033;-54
2022/08/18 05:40:21;;;;;;;5.35;2.10;;;;;;;16.40;100.00;100832.41;5021480;28;20033;-48
2022/08/18 05:42:47;;;;;;;5.68;2.05;;;;;;;16.35;100.00;100833.88;5023597;28;20037;-48
2022/08/18 05:45:16;;;;;;;7.20;2.88;;;;;;;16.29;100.00;100829.41;5030549;28;20102;-48
2022/08/18 05:47:41;;;;;;;5.60;2.88;;;;;;;16.26;100.00;100832.53;5023299;28;20025;-51
2022/08/18 05:50:18;;;;;;;10.63;2.15;;;;;;;16.26;100.00;100837.03;5026817;28;20457;-49
2022/08/18 05:52:53;;;;;;;6.15;2.60;;;;;;;16.24;100.00;100834.59;5015129;28;20057;-47
2022/08/18 05:58:54;;;;;;;3.67;2.30;;;;;;;16.24;100.00;100839.94;5025978;28;20035;-47
2022/08/18 06:01:25;;;;;;;3.05;1.30;;;;;;;16.27;100.00;100838.69;5028998;28;20126;-48
2022/08/18 06:04:15;;;;;;;5.93;2.90;;;;;;;16.28;100.00;100833.09;5032455;28;20038;-52
2022/08/18 06:06:43;;;;;;;7.72;2.22;;;;;;;16.32;100.00;100838.84;5020001;28;20053;-52
2022/08/18 06:09:14;;;;;;;11.48;2.50;;;;;;;16.36;100.00;100832.00;5028719;28;20021;-48
2022/08/18 06:11:39;;;;;;;9.18;2.50;;;;;;;16.45;100.00;100840.59;5030982;28;20422;-50
2022/08/18 06:14:05;;;;;;;4.22;2.72;;;;;;;16.51;100.00;100837.00;5026993;28;20033;-51
2022/08/18 06:16:52;;;;;;;9.20;2.67;;;;;;;16.62;100.00;100835.47;5027733;28;20095;-50
2022/08/18 06:19:24;;;;;;;8.80;3.63;;;;;;;16.74;100.00;100841.72;5021205;28;20140;-50
2022/08/18 06:21:55;;;;;;;5.47;2.22;;;;;;;16.83;100.00;100839.56;5018075;28;20475;-49
2022/08/18 06:25:02;;;;;;;3.85;2.63;;;;;;;16.94;100.00;100833.50;5029671;28;20455;-51
2022/08/18 06:27:40;;;;;;;8.15;3.75;;;;;;;16.99;100.00;100830.97;5025278;28;20044;-51
2022/08/18 06:30:20;;;;;;;10.32;3.05;;;;;;;17.04;100.00;100827.59;5020445;28;20068;-49
2022/08/18 06:33:09;;;;;;;8.23;3.90;;;;;;;17.05;100.00;100826.56;5022844;28;20034;-49
2022/08/18 06:35:45;;;;;;;8.80;3.22;;;;;;;17.09;100.00;100825.88;5020063;28;20038;-50
2022/08/18 06:38:37;;;;;;;7.85;3.30;;;;;;;17.15;100.00;100832.19;5021457;28;20117;-52
2022/08/18 06:41:20;;;;;;;13.50;2.53;;;;;;;17.29;100.00;100835.50;5012453;28;20040;-52
2022/08/18 06:43:57;;;;;;;6.18;3.25;;;;;;;17.44;100.00;100831.38;5024931;28;20086;-50
2022/08/18 06:46:34;;;;;;;6.60;2.55;;;;;;;17.55;100.00;100839.69;5020680;28;20061;-50
2022/08/18 06:49:05;;;;;;;5.13;1.88;;;;;;;17.61;100.00;100830.75;5024874;28;20083;-51
2022/08/18 06:51:31;;;;;;;6.17;2.33;;;;;;;17.72;100.00;100834.50;5030395;28;20033;-50
2022/08/18 06:54:07;;;;;;;9.52;2.95;;;;;;;17.83;100.00;100836.41;5019818;28;20282;-53
2022/08/18 06:56:38;;;;;;;3.47;3.17;;;;;;;17.95;100.00;100823.84;5021009;28;20099;-51
2022/08/18 06:59:31;;;;;;;9.80;3.75;;;;;;;18.11;100.00;100837.63;5013930;28;20048;-50
2022/08/18 07:02:24;;;;;;;6.63;3.10;;;;;;;18.19;100.00;100831.91;5016926;28;20062;-48
2022/08/18 07:05:14;;;;;;;5.18;2.08;;;;;;;18.18;100.00;100827.59;5019817;28;20064;-52
2022/08/18 07:07:41;;;;;;;5.93;2.80;;;;;;;18.19;100.00;100823.84;5022059;28;20061;-52
2022/08/18 07:10:30;;;;;;;10.65;2.80;;;;;;;18.30;100.00;100829.25;5018252;28;20081;-51
2022/08/18 07:13:06;;;;;;;9.15;3.33;;;;;;;18.48;100.00;100822.94;5024862;28;20053;-55
2022/08/18 07:15:32;;;;;;;5.15;1.88;;;;;;;18.56;100.00;100818.22;5023090;28;20037;-52
2022/08/18 07:18:06;;;;;;;5.70;2.50;;;;;;;18.64;100.00;100820.56;5016980;28;20052;-51
2022/08/18 07:20:42;;;;;;;5.90;2.15;;;;;;;18.76;100.00;100817.88;5027807;28;20368;-53
2022/08/18 07:23:08;;;;;;;9.20;2.70;;;;;;;18.79;100.00;100807.47;5013899;28;20120;-55
2022/08/18 07:25:43;;;;;;;6.05;3.45;;;;;;;18.66;100.00;100808.50;5019215;28;20026;-48
2022/08/18 07:28:48;;;;;;;6.72;2.55;;;;;;;18.56;100.00;100807.50;5014864;28;20030;-51
2022/08/18 07:31:23;;;;;;;5.38;2.55;;;;;;;18.52;100.00;100818.72;5017367;28;20445;-49
2022/08/18 07:34:15;;;;;;;12.80;4.22;;;;;;;18.51;100.00;100816.28;5010604;28;20495;-52
2022/08/18 07:36:52;;;;;;;10.68;4.65;;;;;;;18.44;100.00;100818.25;5024916;28;20471;-55
2022/08/18 07:39:49;;;;;;;5.60;3.33;;;;;;;18.40;100.00;100819.78;5027374;28;20033;-48
2022/08/18 07:42:39;;;;;;;5.38;2.83;;;;;;;18.45;100.00;100818.00;5016615;28;20117;-54
2022/08/18 07:45:23;;;;;;;6.75;3.42;;;;;;;18.52;100.00;100818.72;5016804;28;20119;-48
2022/08/18 07:47:58;;;;;;;9.15;3.72;;;;;;;18.55;100.00;100814.72;5023321;28;20151;-52
2022/08/18 07:50:26;;;;;;;4.60;3.45;;;;;;;18.59;100.00;100815.09;5010420;28;20033;-52
2022/08/18 07:53:34;;;;;;;11.00;3.78;;;;;;;18.59;100.00;100818.59;5020564;28;20017;-53
2022/08/18 07:56:46;;;;;;;4.90;2.80;;;;;;;18.56;100.00;100819.06;5025981;28;20470;-54
2022/08/18 07:59:20;;;;;;;5.45;3.42;;;;;;;18.56;100.00;100812.84;5012703;28;20044;-54
2022/08/18 08:01:57;;;;;;;8.20;4.40;;;;;;;18.62;100.00;100818.13;5028549;28;20098;-54
2022/08/18 08:04:59;;;;;;;7.15;5.55;;;;;;;18.70;100.00;100804.31;5023583;28;20103;-53
2022/08/18 08:07:44;;;;;;;7.15;3.92;;;;;;;18.80;100.00;100809.13;5027065;28;20022;-49
2022/08/18 08:10:18;;;;;;;4.20;3.45;;;;;;;18.88;100.00;100798.00;5027546;28;20038;-52
2022/08/18 08:12:57;;;;;;;6.97;4.10;;;;;;;19.02;100.00;100805.78;5020465;28;20411;-49
2022/08/18 08:15:37;;;;;;;5.13;3.13;;;;;;;19.14;100.00;100806.56;5022173;28;20091;-51
2022/08/18 08:18:20;;;;;;;7.70;4.97;;;;;;;19.25;100.00;100797.63;5018638;28;20030;-52
2022/08/18 08:20:54;;;;;;;7.53;4.68;;;;;;;19.30;100.00;100786.97;5017666;28;20037;-54
2022/08/18 08:23:54;;;;;;;8.38;3.47;;;;;;;19.29;100.00;100789.91;5026475;28;20362;-51
2022/08/18 08:26:34;;;;;;;9.70;3.35;;;;;;;19.39;100.00;100785.53;5017383;28;20045;-50
2022/08/18 08:29:15;;;;;;;3.75;2.53;;;;;;;19.35;100.00;100778.97;5023289;28;20041;-51
2022/08/18 08:31:48;;;;;;;7.35;4.13;;;;;;;19.35;100.00;100784.38;5020503;28;20072;-54
2022/08/18 08:34:19;;;;;;;4.82;3.88;;;;;;;19.32;100.00;100781.34;5021051;28;20037;-52
2022/08/18 08:36:46;;;;;;;4.63;2.88;;;;;;;19.31;100.00;100785.09;5027192;28;20509;-54
2022/08/18 08:39:21;;;;;;;6.60;4.55;;;;;;;19.40;100.00;100780.97;5023132;28;20042;-51
2022/08/18 08:41:54;;;;;;;5.65;3.60;;;;;;;19.60;100.00;100780.50;5024221;28;20052;-55
2022/08/18 08:44:27;;;;;;;5.57;3.45;;;;;;;19.78;100.00;100766.84;5023991;28;20033;-51
2022/08/18 08:47:06;;;;;;;6.25;3.47;;;;;;;19.98;100.00;100771.72;5021200;28;20131;-52
2022/08/18 08:49:38;;;;;;;8.05;3.65;;;;;;;20.10;100.00;100765.41;5015273;28;20029;-54
2022/08/18 08:52:21;;;;;;;11.13;3.70;;;;;;;20.23;100.00;100765.06;5025197;28;20052;-54
2022/08/18 08:54:54;;;;;;;8.40;3.60;;;;;;;20.45;100.00;100765.09;5020425;28;20044;-51
2022/08/18 08:57:25;;;;;;;6.57;2.90;;;;;;;21.01;100.00;100763.06;5013907;28;20508;-55
2022/08/18 08:59:51;;;;;;;4.32;2.22;;;;;;;21.14;100.00;100751.06;5029597;28;20034;-54
2022/08/18 09:03:10;;;;;;;4.53;3.17;;;;;;;20.96;100.00;100749.56;5017556;28;20394;-53
2022/08/18 09:05:48;;;;;;;5.38;2.95;;;;;;;20.93;100.00;100750.06;5020647;28;20044;-50
2022/08/18 09:08:29;;;;;;;2.40;2.17;;;;;;;20.99;100.00;100756.31;5017432;28;20076;-53
2022/08/18 09:11:03;;;;;;;4.97;2.85;;;;;;;20.87;100.00;100757.28;5014393;28;20072;-55
2022/08/18 09:13:50;;;;;;;5.18;2.80;;;;;;;21.06;100.00;100746.94;5021206;28;20053;-55
2022/08/18 09:16:34;;;;;;;3.83;1.85;;;;;;;21.36;100.00;100740.25;5018295;28;20140;-54
2022/08/18 09:19:07;;;;;;;8.38;2.72;;;;;;;21.82;100.00;100731.72;5033897;28;20080;-55
2022/08/18 09:21:38;;;;;;;5.00;2.70;;;;;;;22.25;100.00;100736.03;5020938;28;20080;-51
2022/08/18 09:24:13;;;;;;;3.38;2.05;;;;;;;22.61;100.00;100719.97;5022681;28;20029;-50
2022/08/18 09:26:41;;;;;;;3.58;2.00;;;;;;;22.95;100.00;100714.94;5024900;28;20041;-52
2022/08/18 09:29:36;;;;;;;3.40;1.85;;;;;;;22.74;100.00;100714.06;5017955;28;20126;-54
2022/08/18 09:32:19;;;;;;;5.88;1.67;;;;;;;22.31;100.00;100724.19;5018498;28;20048;-51
2022/08/18 09:34:55;;;;;;;3.33;2.03;;;;;;;21.91;100.00;100728.25;5015950;28;20403;-55
2022/08/18 09:37:40;;;;;;;3.42;2.47;;;;;;;21.60;100.00;100724.53;5018137;28;20099;-56
2022/08/18 09:43:10;;;;;;;;;;;;;;;21.45;100.00;100717.16;5021689;28;20029;-56
2022/08/18 09:45:46;;;;;;;5.05;2.97;;;;;;;21.40;100.00;100727.91;5022008;28;19920;-56
2022/08/18 09:48:11;;;;;;;3.60;2.28;;;;;;;21.35;100.00;100733.22;5021232;28;20026;-49
2022/08/18 09:50:52;;;;;;;3.10;2.55;;;;;;;21.27;100.00;100730.97;5017670;28;20021;-50
2022/08/18 09:53:53;;;;;;;4.55;2.50;;;;;;;21.30;100.00;100725.09;5018990;28;20438;-53
2022/08/18 09:56:49;;;;;;;2.85;2.25;;;;;;;21.35;100.00;100731.34;5025710;28;20486;-52
2022/08/18 09:59:33;;;;;;;3.08;2.10;;;;;;;21.58;100.00;100718.59;5021018;28;20459;-56
2022/08/18 10:02:10;;;;;;;2.88;2.25;;;;;;;21.84;100.00;100718.75;5025849;28;20056;-52
2022/08/18 10:04:47;;;;;;;2.65;2.20;;;;;;;21.99;100.00;100721.56;5021798;28;20032;-55
2022/08/18 10:07:32;;;;;;;2.53;2.10;;;;;;;22.33;100.00;100705.84;5027926;28;20103;-55
2022/08/18 10:10:21;;;;;;;6.68;1.95;;;;;;;22.95;100.00;100709.53;5026116;28;20029;-51
2022/08/18 10:13:11;;;;;;;3.03;1.95;;;;;;;23.04;100.00;100704.44;5022806;28;20122;-54
2022/08/18 10:15:59;;;;;;;8.65;2.70;;;;;;;22.69;100.00;100705.97;5018074;28;20036;-55
2022/08/18 10:18:59;;;;;;;4.18;2.75;;;;;;;22.30;100.00;100698.25;5018342;28;20022;-57
2022/08/18 10:21:27;;;;;;;3.03;2.03;;;;;;;21.95;100.00;100710.47;5020795;28;20109;-56
2022/08/18 10:24:01;;;;;;;5.20;1.90;;;;;;;21.91;100.00;100706.66;5027468;28;20036;-48
2022/08/18 10:26:30;;;;;;;4.88;2.63;;;;;;;21.80;100.00;100701.47;5022684;28;20049;-48
2022/08/18 10:28:58;;;;;;;4.45;2.00;;;;;;;21.65;100.00;100696.78;5019708;28;20029;-55
2022/08/18 10:31:25;;;;;;;3.10;1.85;;;;;;;21.64;100.00;100687.06;5028592;28;20475;-53
2022/08/18 10:34:05;;;;;;;4.97;2.80;;;;;;;21.96;100.00;100682.41;5018341;28;20150;-49
2022/08/18 10:36:45;;;;;;;3.95;2.50;;;;;;;22.30;100.00;100684.75;5024487;28;20080;-56
2022/08/18 10:39:18;;;;;;;5.00;2.08;;;;;;;22.90;100.00;100679.78;5015604;28;20029;-52
2022/08/18 10:42:09;;;;;;;7.10;4.20;;;;;;;22.78;100.00;100674.63;5014479;28;20455;-51
2022/08/18 10:44:45;;;;;;;;;;;;;;;22.61;100.00;100671.34;5026545;28;20360;-54
2022/08/18 10:47:27;;;;;;;9.88;4.90;;;;;;;22.27;100.00;100671.78;5027579;28;19917;-54
2022/08/18 10:49:52;;;;;;;4.88;3.13;;;;;;;22.18;100.00;100678.75;5026235;28;20425;-54
2022/08/18 10:52:45;;;;;;;6.47;3.38;;;;;;;22.05;100.00;100680.03;5031818;28;20037;-53
2022/08/18 10:55:26;;;;;;;9.32;4.35;;;;;;;22.13;100.00;100676.03;5022206;28;20030;-52
2022/08/18 10:58:17;;;;;;;8.47;4.30;;;;;;;22.13;100.00;100676.03;5032283;28;20033;-56
2022/08/18 11:00:53;;;;;;;;;;;;;;;22.47;100.00;100660.25;5025883;28;20264;-53
2022/08/18 11:03:38;;;;;;;9.65;4.57;;;;;;;22.57;100.00;100659.47;5029724;28;20034;-54
2022/08/18 11:06:07;;;;;;;6.38;3.95;;;;;;;22.39;100.00;100658.88;5014526;28;20025;-53
2022/08/18 11:08:41;;;;;;;5.00;3.60;;;;;;;22.66;100.00;100652.44;5020798;28;20030;-54
2022/08/18 11:11:09;;;;;;;9.73;3.30;;;;;;;23.16;100.00;100640.09;5016912;28;20501;-50
2022/08/18 11:13:47;;;;;;;4.60;3.28;;;;;;;23.75;100.00;100637.84;5021695;28;20060;-55
2022/08/18 11:16:36;;;;;;;6.25;2.83;;;;;;;24.32;100.00;100636.56;5028380;28;20098;-55
2022/08/18 11:19:11;;;;;;;5.28;1.83;;;;;;;24.63;100.00;100628.25;5018580;28;20075;-52
2022/08/18 11:21:37;;;;;;;4.60;2.65;;;;;;;24.68;100.00;100626.34;5025661;28;20125;-52
2022/08/18 11:24:03;;;;;;;6.13;2.90;;;;;;;24.31;100.00;100634.94;5020222;28;20104;-50
2022/08/18 11:26:34;;;;;;;6.93;2.97;;;;;;;23.78;100.00;100623.78;5019697;28;20119;-55
2022/08/18 11:29:15;;;;;;;3.70;1.70;;;;;;;24.29;100.00;100624.38;5021956;28;20057;-54
2022/08/18 11:31:40;;;;;;;5.28;2.42;;;;;;;24.88;100.00;100616.44;5019563;28;20025;-50
2022/08/18 11:34:13;;;;;;;3.75;2.40;;;;;;;25.36;100.00;100611.97;5025953;28;20041;-49
2022/08/18 11:36:39;;;;;;;3.42;2.53;;;;;;;25.10;100.00;100616.00;5018044;28;20183;-52
2022/08/18 11:39:09;;;;;;;2.50;2.25;;;;;;;24.64;100.00;100617.16;5023160;28;20030;-56
2022/08/18 11:41:36;;;;;;;5.18;1.95;;;;;;;24.68;100.00;100622.81;5020439;28;20026;-50
2022/08/18 11:44:04;;;;;;;4.72;2.55;;;;;;;24.67;100.00;100621.19;5020849;28;20044;-57
2022/08/18 11:46:37;;;;;;;2.00;1.75;;;;;;;24.58;100.00;100618.28;5018368;28;20040;-55
2022/08/18 11:49:15;;;;;;;4.00;1.77;;;;;;;24.54;100.00;100615.31;5022809;28;20116;-51
2022/08/18 11:51:58;;;;;;;4.30;1.80;;;;;;;24.49;100.00;100615.34;5017806;28;20021;-53
2022/08/18 11:54:38;;;;;;;4.25;2.22;;;;;;;24.45;100.00;100605.38;5025406;28;20037;-50
2022/08/18 11:57:53;;;;;;;2.40;2.20;;;;;;;24.12;100.00;100611.19;5016511;28;20077;-56
2022/08/18 12:00:47;;;;;;;4.18;1.90;;;;;;;24.03;100.00;100615.53;5022358;28;20033;-55